sensor_id;sensor_type;location;lat;lon;timestamp;P1;durP1;ratioP1;P2;durP2;ratioP2
18399;SDS011;9326;49.468;11.008;2023-01-28T00:00:48;7.20;;;5.63;;
18399;SDS011;9326;49.468;11.008;2023-01-28T00:03:17;6.27;;;5.53;;
18399;SDS011;9326;49.468;11.008;2023-01-28T00:05:44;6.63;;;5.57;;
18399;SDS011;9326;49.468;11.008;2023-01-28T00:08:11;5.40;;;4.60;;
18399;SDS011;9326;49.468;11.008;2023-01-28T00:10:38;5.57;;;5.03;;
18399;SDS011;9326;49.468;11.008;2023-01-28T00:13:07;5.67;;;5.07;;
18399;SDS011;9326;49.468;11.008;2023-01-28T00:15:35;5.93;;;5.33;;
18399;SDS011;9326;49.468;11.008;2023-01-28T00:18:02;6.13;;;5.53;;
18399;SDS011;9326;49.468;11.008;2023-01-28T00:20:30;6.30;;;5.17;;
18399;SDS011;9326;49.468;11.008;2023-01-28T00:22:59;5.57;;;5.00;;
18399;SDS011;9326;49.468;11.008;2023-01-28T00:25:26;6.00;;;5.17;;
18399;SDS011;9326;49.468;11.008;2023-01-28T00:27:53;6.13;;;5.47;;
18399;SDS011;9326;49.468;11.008;2023-01-28T00:30:20;6.07;;;5.10;;
18399;SDS011;9326;49.468;11.008;2023-01-28T00:32:47;6.53;;;5.33;;
18399;SDS011;9326;49.468;11.008;2023-01-28T00:35:14;6.10;;;5.20;;
18399;SDS011;9326;49.468;11.008;2023-01-28T00:37:45;6.20;;;5.60;;
18399;SDS011;9326;49.468;11.008;2023-01-28T00:40:12;5.67;;;5.00;;
18399;SDS011;9326;49.468;11.008;2023-01-28T00:42:40;5.97;;;5.37;;
18399;SDS011;9326;49.468;11.008;2023-01-28T00:45:07;6.13;;;5.43;;
18399;SDS011;9326;49.468;11.008;2023-01-28T00:47:34;7.10;;;5.70;;
18399;SDS011;9326;49.468;11.008;2023-01-28T00:50:01;5.73;;;5.10;;
18399;SDS011;9326;49.468;11.008;2023-01-28T00:52:29;6.77;;;5.73;;
18399;SDS011;9326;49.468;11.008;2023-01-28T00:54:57;5.83;;;5.30;;
18399;SDS011;9326;49.468;11.008;2023-01-28T00:57:25;6.53;;;5.80;;
18399;SDS011;9326;49.468;11.008;2023-01-28T00:59:52;6.60;;;5.43;;
18399;SDS011;9326;49.468;11.008;2023-01-28T06:01:50;21.20;;;14.03;;
18399;SDS011;9326;49.468;11.008;2023-01-28T06:04:19;22.40;;;15.10;;
18399;SDS011;9326;49.468;11.008;2023-01-28T06:06:46;22.83;;;16.60;;
18399;SDS011;9326;49.468;11.008;2023-01-28T06:09:13;28.17;;;20.73;;
18399;SDS011;9326;49.468;11.008;2023-01-28T06:11:41;27.47;;;18.33;;
18399;SDS011;9326;49.468;11.008;2023-01-28T06:14:09;21.70;;;14.03;;
18399;SDS011;9326;49.468;11.008;2023-01-28T06:16:36;24.13;;;15.40;;
18399;SDS011;9326;49.468;11.008;2023-01-28T06:19:04;22.50;;;15.10;;
18399;SDS011;9326;49.468;11.008;2023-01-28T06:21:33;22.23;;;14.77;;
18399;SDS011;9326;49.468;11.008;2023-01-28T06:24:01;20.40;;;13.63;;
18399;SDS011;9326;49.468;11.008;2023-01-28T06:26:28;21.70;;;14.23;;
18399;SDS011;9326;49.468;11.008;2023-01-28T06:28:55;22.47;;;14.53;;
18399;SDS011;9326;49.468;11.008;2023-01-28T06:31:25;20.93;;;13.47;;
18399;SDS011;9326;49.468;11.008;2023-01-28T06:33:52;20.63;;;14.20;;
18399;SDS011;9326;49.468;11.008;2023-01-28T06:36:20;20.27;;;14.47;;
18399;SDS011;9326;49.468;11.008;2023-01-28T06:38:47;21.63;;;14.73;;
18399;SDS011;9326;49.468;11.008;2023-01-28T06:41:16;19.97;;;14.73;;
18399;SDS011;9326;49.468;11.008;2023-01-28T06:43:43;20.13;;;13.97;;
18399;SDS011;9326;49.468;11.008;2023-01-28T06:46:10;19.23;;;14.00;;
18399;SDS011;9326;49.468;11.008;2023-01-28T06:48:37;21.80;;;14.73;;
18399;SDS011;9326;49.468;11.008;2023-01-28T06:51:04;21.53;;;15.53;;
18399;SDS011;9326;49.468;11.008;2023-01-28T06:53:33;21.40;;;14.27;;
18399;SDS011;9326;49.468;11.008;2023-01-28T06:56:02;20.53;;;15.03;;
18399;SDS011;9326;49.468;11.008;2023-01-28T06:58:29;21.57;;;15.77;;
18399;SDS011;9326;49.468;11.008;2023-01-28T07:00:56;20.87;;;14.30;;
18399;SDS011;9326;49.468;11.008;2023-01-28T07:03:23;21.40;;;14.20;;
18399;SDS011;9326;49.468;11.008;2023-01-28T07:05:51;22.83;;;15.70;;
18399;SDS011;9326;49.468;11.008;2023-01-28T07:08:18;22.60;;;14.17;;
18399;SDS011;9326;49.468;11.008;2023-01-28T07:10:46;22.37;;;15.27;;
18399;SDS011;9326;49.468;11.008;2023-01-28T07:13:13;21.93;;;15.20;;
18399;SDS011;9326;49.468;11.008;2023-01-28T07:15:40;21.03;;;15.20;;
18399;SDS011;9326;49.468;11.008;2023-01-28T07:18:07;19.77;;;13.90;;
18399;SDS011;9326;49.468;11.008;2023-01-28T07:20:35;20.70;;;14.33;;
18399;SDS011;9326;49.468;11.008;2023-01-28T07:23:02;20.27;;;13.53;;
18399;SDS011;9326;49.468;11.008;2023-01-28T07:25:29;19.97;;;14.10;;
18399;SDS011;9326;49.468;11.008;2023-01-28T07:27:58;19.70;;;13.23;;
18399;SDS011;9326;49.468;11.008;2023-01-28T07:30:25;18.67;;;12.10;;
18399;SDS011;9326;49.468;11.008;2023-01-28T07:32:52;24.00;;;17.33;;
18399;SDS011;9326;49.468;11.008;2023-01-28T07:35:19;30.17;;;23.33;;
18399;SDS011;9326;49.468;11.008;2023-01-28T07:37:49;23.43;;;14.97;;
18399;SDS011;9326;49.468;11.008;2023-01-28T07:40:17;23.73;;;15.97;;
18399;SDS011;9326;49.468;11.008;2023-01-28T07:42:44;22.23;;;14.80;;
18399;SDS011;9326;49.468;11.008;2023-01-28T07:45:14;20.37;;;13.23;;
18399;SDS011;9326;49.468;11.008;2023-01-28T07:47:41;18.67;;;13.03;;
18399;SDS011;9326;49.468;11.008;2023-01-28T07:50:11;17.47;;;11.27;;
18399;SDS011;9326;49.468;11.008;2023-01-28T07:52:39;21.07;;;13.67;;
18399;SDS011;9326;49.468;11.008;2023-01-28T07:55:10;17.20;;;11.60;;
18399;SDS011;9326;49.468;11.008;2023-01-28T07:57:46;17.20;;;11.53;;
18399;SDS011;9326;49.468;11.008;2023-01-28T08:00:15;18.33;;;11.50;;
18399;SDS011;9326;49.468;11.008;2023-01-28T08:02:42;18.20;;;11.47;;
18399;SDS011;9326;49.468;11.008;2023-01-28T08:05:14;16.20;;;10.77;;
18399;SDS011;9326;49.468;11.008;2023-01-28T08:07:41;20.07;;;12.63;;
18399;SDS011;9326;49.468;11.008;2023-01-28T08:10:09;15.93;;;10.57;;
18399;SDS011;9326;49.468;11.008;2023-01-28T08:12:37;14.30;;;10.13;;
18399;SDS011;9326;49.468;11.008;2023-01-28T08:15:04;15.23;;;10.23;;
18399;SDS011;9326;49.468;11.008;2023-01-28T08:17:33;15.00;;;10.50;;
18399;SDS011;9326;49.468;11.008;2023-01-28T08:20:00;11.30;;;7.40;;
18399;SDS011;9326;49.468;11.008;2023-01-28T08:22:27;10.70;;;7.43;;
18399;SDS011;9326;49.468;11.008;2023-01-28T08:24:54;9.67;;;7.60;;
18399;SDS011;9326;49.468;11.008;2023-01-28T08:27:21;10.50;;;7.27;;
18399;SDS011;9326;49.468;11.008;2023-01-28T08:29:48;10.17;;;7.00;;
18399;SDS011;9326;49.468;11.008;2023-01-28T08:32:15;8.90;;;7.07;;
18399;SDS011;9326;49.468;11.008;2023-01-28T08:34:46;9.40;;;6.20;;
18399;SDS011;9326;49.468;11.008;2023-01-28T08:37:13;8.93;;;5.90;;
18399;SDS011;9326;49.468;11.008;2023-01-28T08:39:40;8.63;;;6.57;;
18399;SDS011;9326;49.468;11.008;2023-01-28T08:42:07;9.00;;;6.60;;
18399;SDS011;9326;49.468;11.008;2023-01-28T08:44:37;10.03;;;6.73;;
18399;SDS011;9326;49.468;11.008;2023-01-28T08:47:04;8.67;;;6.73;;
18399;SDS011;9326;49.468;11.008;2023-01-28T08:49:32;10.03;;;6.20;;
18399;SDS011;9326;49.468;11.008;2023-01-28T08:52:00;7.47;;;5.87;;
18399;SDS011;9326;49.468;11.008;2023-01-28T08:54:27;8.53;;;5.93;;
18399;SDS011;9326;49.468;11.008;2023-01-28T08:56:54;6.40;;;5.30;;
18399;SDS011;9326;49.468;11.008;2023-01-28T08:59:22;5.93;;;5.23;;
18399;SDS011;9326;49.468;11.008;2023-01-28T09:01:49;7.07;;;4.60;;
18399;SDS011;9326;49.468;11.008;2023-01-28T09:04:17;5.73;;;4.63;;
18399;SDS011;9326;49.468;11.008;2023-01-28T09:06:44;5.77;;;4.60;;
18399;SDS011;9326;49.468;11.008;2023-01-28T09:09:12;6.30;;;4.80;;
18399;SDS011;9326;49.468;11.008;2023-01-28T09:11:39;5.60;;;4.23;;
18399;SDS011;9326;49.468;11.008;2023-01-28T09:14:06;4.87;;;3.80;;
18399;SDS011;9326;49.468;11.008;2023-01-28T09:16:33;5.13;;;4.13;;
18399;SDS011;9326;49.468;11.008;2023-01-28T09:19:00;3.40;;;2.63;;
18399;SDS011;9326;49.468;11.008;2023-01-28T09:21:28;2.90;;;2.53;;
18399;SDS011;9326;49.468;11.008;2023-01-28T09:23:55;3.77;;;2.83;;
18399;SDS011;9326;49.468;11.008;2023-01-28T09:26:23;2.90;;;2.70;;
18399;SDS011;9326;49.468;11.008;2023-01-28T09:28:51;1.60;;;1.37;;
18399;SDS011;9326;49.468;11.008;2023-01-28T09:31:18;2.70;;;2.50;;
18399;SDS011;9326;49.468;11.008;2023-01-28T09:33:46;3.37;;;2.70;;
18399;SDS011;9326;49.468;11.008;2023-01-28T09:36:20;2.70;;;2.40;;
18399;SDS011;9326;49.468;11.008;2023-01-28T09:38:47;2.67;;;2.47;;
18399;SDS011;9326;49.468;11.008;2023-01-28T09:41:21;3.20;;;2.10;;
18399;SDS011;9326;49.468;11.008;2023-01-28T09:43:53;3.10;;;2.80;;
18399;SDS011;9326;49.468;11.008;2023-01-28T09:46:24;2.60;;;2.40;;
18399;SDS011;9326;49.468;11.008;2023-01-28T09:48:54;3.57;;;2.60;;
18399;SDS011;9326;49.468;11.008;2023-01-28T09:51:25;3.00;;;2.57;;
18399;SDS011;9326;49.468;11.008;2023-01-28T09:53:56;3.37;;;2.70;;
18399;SDS011;9326;49.468;11.008;2023-01-28T09:56:25;3.20;;;2.60;;
18399;SDS011;9326;49.468;11.008;2023-01-28T09:58:55;2.50;;;2.30;;
18399;SDS011;9326;49.468;11.008;2023-01-28T10:01:35;2.13;;;1.83;;
18399;SDS011;9326;49.468;11.008;2023-01-28T10:04:03;3.43;;;2.17;;
18399;SDS011;9326;49.468;11.008;2023-01-28T10:06:33;2.27;;;2.03;;
18399;SDS011;9326;49.468;11.008;2023-01-28T10:09:20;1.97;;;1.83;;
18399;SDS011;9326;49.468;11.008;2023-01-28T10:11:55;2.77;;;2.57;;
18399;SDS011;9326;49.468;11.008;2023-01-28T10:14:30;2.80;;;2.13;;
18399;SDS011;9326;49.468;11.008;2023-01-28T10:17:03;3.43;;;2.20;;
18399;SDS011;9326;49.468;11.008;2023-01-28T10:19:33;2.33;;;2.10;;
18399;SDS011;9326;49.468;11.008;2023-01-28T10:22:02;2.27;;;2.10;;
18399;SDS011;9326;49.468;11.008;2023-01-28T10:24:31;2.23;;;1.97;;
18399;SDS011;9326;49.468;11.008;2023-01-28T10:26:59;3.30;;;2.10;;
18399;SDS011;9326;49.468;11.008;2023-01-28T10:29:30;3.27;;;2.30;;
18399;SDS011;9326;49.468;11.008;2023-01-28T10:32:01;3.67;;;1.90;;
18399;SDS011;9326;49.468;11.008;2023-01-28T10:34:32;1.87;;;1.77;;
18399;SDS011;9326;49.468;11.008;2023-01-28T10:36:59;2.27;;;1.80;;
18399;SDS011;9326;49.468;11.008;2023-01-28T10:39:26;3.00;;;2.23;;
18399;SDS011;9326;49.468;11.008;2023-01-28T10:41:54;3.00;;;2.00;;
18399;SDS011;9326;49.468;11.008;2023-01-28T10:44:24;2.70;;;1.90;;
18399;SDS011;9326;49.468;11.008;2023-01-28T10:46:53;1.83;;;1.60;;
18399;SDS011;9326;49.468;11.008;2023-01-28T10:49:21;1.90;;;1.13;;
18399;SDS011;9326;49.468;11.008;2023-01-28T10:51:50;2.30;;;1.77;;
18399;SDS011;9326;49.468;11.008;2023-01-28T10:54:18;1.97;;;1.57;;
18399;SDS011;9326;49.468;11.008;2023-01-28T10:56:46;2.27;;;1.27;;
18399;SDS011;9326;49.468;11.008;2023-01-28T10:59:18;3.60;;;1.53;;
18399;SDS011;9326;49.468;11.008;2023-01-28T11:01:46;1.97;;;0.83;;
18399;SDS011;9326;49.468;11.008;2023-01-28T11:04:17;1.70;;;1.60;;
18399;SDS011;9326;49.468;11.008;2023-01-28T11:06:57;1.80;;;1.70;;
18399;SDS011;9326;49.468;11.008;2023-01-28T11:09:28;2.13;;;1.57;;
18399;SDS011;9326;49.468;11.008;2023-01-28T11:11:55;3.13;;;1.90;;
18399;SDS011;9326;49.468;11.008;2023-01-28T11:14:23;0.90;;;0.87;;
18399;SDS011;9326;49.468;11.008;2023-01-28T11:16:51;1.30;;;1.20;;
18399;SDS011;9326;49.468;11.008;2023-01-28T11:19:21;0.90;;;0.83;;
18399;SDS011;9326;49.468;11.008;2023-01-28T11:21:51;1.77;;;1.07;;
18399;SDS011;9326;49.468;11.008;2023-01-28T11:24:20;2.90;;;1.30;;
18399;SDS011;9326;49.468;11.008;2023-01-28T11:26:48;2.53;;;1.60;;
18399;SDS011;9326;49.468;11.008;2023-01-28T11:29:21;1.70;;;1.60;;
18399;SDS011;9326;49.468;11.008;2023-01-28T11:31:49;2.30;;;1.60;;
18399;SDS011;9326;49.468;11.008;2023-01-28T11:34:16;1.83;;;1.43;;
18399;SDS011;9326;49.468;11.008;2023-01-28T11:36:49;1.17;;;1.07;;
18399;SDS011;9326;49.468;11.008;2023-01-28T11:39:19;1.67;;;1.53;;
18399;SDS011;9326;49.468;11.008;2023-01-28T11:41:47;1.90;;;1.60;;
18399;SDS011;9326;49.468;11.008;2023-01-28T11:44:14;2.87;;;1.63;;
18399;SDS011;9326;49.468;11.008;2023-01-28T11:46:48;2.90;;;1.80;;
18399;SDS011;9326;49.468;11.008;2023-01-28T11:49:20;2.43;;;1.70;;
18399;SDS011;9326;49.468;11.008;2023-01-28T11:51:56;1.77;;;1.27;;
18399;SDS011;9326;49.468;11.008;2023-01-28T11:54:31;2.30;;;1.70;;
18399;SDS011;9326;49.468;11.008;2023-01-28T11:57:08;2.53;;;1.30;;
18399;SDS011;9326;49.468;11.008;2023-01-28T11:59:44;2.03;;;1.33;;
18399;SDS011;9326;49.468;11.008;2023-01-28T12:02:20;3.13;;;2.17;;
18399;SDS011;9326;49.468;11.008;2023-01-28T12:04:54;2.27;;;1.90;;
18399;SDS011;9326;49.468;11.008;2023-01-28T12:07:33;1.60;;;1.50;;
18399;SDS011;9326;49.468;11.008;2023-01-28T12:10:05;2.67;;;1.83;;
18399;SDS011;9326;49.468;11.008;2023-01-28T12:12:38;3.67;;;2.13;;
18399;SDS011;9326;49.468;11.008;2023-01-28T12:15:30;3.90;;;2.10;;
18399;SDS011;9326;49.468;11.008;2023-01-28T12:18:09;2.90;;;1.70;;
18399;SDS011;9326;49.468;11.008;2023-01-28T12:20:40;3.67;;;1.67;;
18399;SDS011;9326;49.468;11.008;2023-01-28T12:23:16;2.13;;;1.90;;
18399;SDS011;9326;49.468;11.008;2023-01-28T12:25:51;3.37;;;2.20;;
18399;SDS011;9326;49.468;11.008;2023-01-28T12:28:27;2.63;;;1.80;;
18399;SDS011;9326;49.468;11.008;2023-01-28T12:31:04;2.57;;;1.90;;
18399;SDS011;9326;49.468;11.008;2023-01-28T12:33:40;2.50;;;2.20;;
18399;SDS011;9326;49.468;11.008;2023-01-28T12:36:15;2.97;;;2.20;;
18399;SDS011;9326;49.468;11.008;2023-01-28T12:38:47;2.03;;;1.80;;
18399;SDS011;9326;49.468;11.008;2023-01-28T12:41:19;2.80;;;2.17;;
18399;SDS011;9326;49.468;11.008;2023-01-28T12:43:49;1.67;;;1.50;;
18399;SDS011;9326;49.468;11.008;2023-01-28T12:46:23;3.50;;;2.27;;
18399;SDS011;9326;49.468;11.008;2023-01-28T12:48:53;3.57;;;2.50;;
18399;SDS011;9326;49.468;11.008;2023-01-28T12:51:24;2.67;;;2.07;;
18399;SDS011;9326;49.468;11.008;2023-01-28T12:53:56;3.80;;;2.47;;
18399;SDS011;9326;49.468;11.008;2023-01-28T12:56:24;1.80;;;1.40;;
18399;SDS011;9326;49.468;11.008;2023-01-28T12:58:54;3.83;;;2.70;;
18399;SDS011;9326;49.468;11.008;2023-01-28T13:01:23;3.00;;;2.00;;
18399;SDS011;9326;49.468;11.008;2023-01-28T13:03:52;2.63;;;2.33;;
18399;SDS011;9326;49.468;11.008;2023-01-28T13:06:23;2.77;;;2.40;;
18399;SDS011;9326;49.468;11.008;2023-01-28T13:08:54;3.93;;;2.80;;
18399;SDS011;9326;49.468;11.008;2023-01-28T13:11:22;3.70;;;2.60;;
18399;SDS011;9326;49.468;11.008;2023-01-28T13:13:49;4.73;;;2.70;;
18399;SDS011;9326;49.468;11.008;2023-01-28T13:16:19;2.07;;;1.87;;
18399;SDS011;9326;49.468;11.008;2023-01-28T13:18:46;2.50;;;2.30;;
18399;SDS011;9326;49.468;11.008;2023-01-28T13:21:15;2.53;;;1.97;;
18399;SDS011;9326;49.468;11.008;2023-01-28T13:23:45;2.63;;;1.53;;
18399;SDS011;9326;49.468;11.008;2023-01-28T13:26:27;1.67;;;1.57;;
18399;SDS011;9326;49.468;11.008;2023-01-28T13:29:05;2.13;;;1.93;;
18399;SDS011;9326;49.468;11.008;2023-01-28T13:31:36;2.43;;;2.00;;
18399;SDS011;9326;49.468;11.008;2023-01-28T13:34:03;2.23;;;2.07;;
18399;SDS011;9326;49.468;11.008;2023-01-28T13:36:32;1.97;;;1.70;;
18399;SDS011;9326;49.468;11.008;2023-01-28T13:39:00;1.53;;;1.40;;
18399;SDS011;9326;49.468;11.008;2023-01-28T13:41:42;2.50;;;2.30;;
18399;SDS011;9326;49.468;11.008;2023-01-28T13:44:19;0.60;;;0.60;;
18399;SDS011;9326;49.468;11.008;2023-01-28T13:46:46;2.17;;;2.00;;
18399;SDS011;9326;49.468;11.008;2023-01-28T13:49:14;2.67;;;1.93;;
18399;SDS011;9326;49.468;11.008;2023-01-28T13:51:44;2.30;;;2.10;;
18399;SDS011;9326;49.468;11.008;2023-01-28T13:54:17;2.30;;;2.10;;
18399;SDS011;9326;49.468;11.008;2023-01-28T13:56:51;2.83;;;2.13;;
18399;SDS011;9326;49.468;11.008;2023-01-28T13:59:31;2.97;;;2.60;;
18399;SDS011;9326;49.468;11.008;2023-01-28T14:02:19;1.80;;;1.37;;
18399;SDS011;9326;49.468;11.008;2023-01-28T14:08:11;3.03;;;2.03;;
18399;SDS011;9326;49.468;11.008;2023-01-28T14:10:49;2.73;;;2.10;;
18399;SDS011;9326;49.468;11.008;2023-01-28T14:13:25;3.53;;;2.27;;
18399;SDS011;9326;49.468;11.008;2023-01-28T14:15:57;3.77;;;2.37;;
18399;SDS011;9326;49.468;11.008;2023-01-28T14:18:30;3.13;;;2.27;;
18399;SDS011;9326;49.468;11.008;2023-01-28T14:20:59;1.87;;;1.67;;
18399;SDS011;9326;49.468;11.008;2023-01-28T14:23:26;1.83;;;1.70;;
18399;SDS011;9326;49.468;11.008;2023-01-28T14:25:59;2.90;;;1.97;;
18399;SDS011;9326;49.468;11.008;2023-01-28T14:28:33;3.10;;;2.30;;
18399;SDS011;9326;49.468;11.008;2023-01-28T14:31:02;1.87;;;1.77;;
18399;SDS011;9326;49.468;11.008;2023-01-28T14:33:34;3.67;;;2.10;;
18399;SDS011;9326;49.468;11.008;2023-01-28T14:36:02;2.43;;;2.10;;
18399;SDS011;9326;49.468;11.008;2023-01-28T14:38:37;3.03;;;1.67;;
18399;SDS011;9326;49.468;11.008;2023-01-28T14:41:05;2.73;;;2.30;;
18399;SDS011;9326;49.468;11.008;2023-01-28T14:43:34;6.30;;;1.90;;
18399;SDS011;9326;49.468;11.008;2023-01-28T14:46:05;5.07;;;2.60;;
18399;SDS011;9326;49.468;11.008;2023-01-28T14:48:34;3.57;;;2.80;;
18399;SDS011;9326;49.468;11.008;2023-01-28T14:51:09;4.67;;;3.03;;
18399;SDS011;9326;49.468;11.008;2023-01-28T14:53:52;2.80;;;2.40;;
18399;SDS011;9326;49.468;11.008;2023-01-28T14:56:26;5.50;;;3.27;;
18399;SDS011;9326;49.468;11.008;2023-01-28T14:58:58;1.40;;;1.30;;
18399;SDS011;9326;49.468;11.008;2023-01-28T15:01:27;3.37;;;2.90;;
18399;SDS011;9326;49.468;11.008;2023-01-28T15:03:55;3.93;;;2.90;;
18399;SDS011;9326;49.468;11.008;2023-01-28T15:06:28;4.77;;;3.50;;
18399;SDS011;9326;49.468;11.008;2023-01-28T15:09:04;2.63;;;2.23;;
18399;SDS011;9326;49.468;11.008;2023-01-28T15:11:32;6.07;;;2.70;;
18399;SDS011;9326;49.468;11.008;2023-01-28T15:14:02;3.53;;;3.20;;
18399;SDS011;9326;49.468;11.008;2023-01-28T15:16:29;3.00;;;2.60;;
18399;SDS011;9326;49.468;11.008;2023-01-28T15:18:59;3.90;;;2.97;;
18399;SDS011;9326;49.468;11.008;2023-01-28T15:21:28;4.50;;;3.60;;
18399;SDS011;9326;49.468;11.008;2023-01-28T15:23:56;4.57;;;2.90;;
18399;SDS011;9326;49.468;11.008;2023-01-28T15:26:24;5.20;;;3.60;;
18399;SDS011;9326;49.468;11.008;2023-01-28T15:28:52;3.00;;;2.70;;
18399;SDS011;9326;49.468;11.008;2023-01-28T15:31:25;3.20;;;2.23;;
18399;SDS011;9326;49.468;11.008;2023-01-28T15:33:56;4.77;;;2.93;;
18399;SDS011;9326;49.468;11.008;2023-01-28T15:36:25;4.73;;;3.40;;
18399;SDS011;9326;49.468;11.008;2023-01-28T15:38:53;3.60;;;3.23;;
18399;SDS011;9326;49.468;11.008;2023-01-28T15:41:20;1.93;;;1.83;;
18399;SDS011;9326;49.468;11.008;2023-01-28T15:43:50;2.70;;;2.00;;
18399;SDS011;9326;49.468;11.008;2023-01-28T15:46:17;3.47;;;3.17;;
18399;SDS011;9326;49.468;11.008;2023-01-28T15:48:47;4.07;;;2.87;;
18399;SDS011;9326;49.468;11.008;2023-01-28T15:51:17;4.53;;;3.30;;
18399;SDS011;9326;49.468;11.008;2023-01-28T15:53:45;5.97;;;3.70;;
18399;SDS011;9326;49.468;11.008;2023-01-28T15:56:14;5.67;;;3.27;;
18399;SDS011;9326;49.468;11.008;2023-01-28T15:58:43;4.07;;;2.90;;
18399;SDS011;9326;49.468;11.008;2023-01-28T16:01:12;4.60;;;3.17;;
18399;SDS011;9326;49.468;11.008;2023-01-28T16:03:40;4.33;;;2.93;;
18399;SDS011;9326;49.468;11.008;2023-01-28T16:06:09;4.77;;;3.40;;
18399;SDS011;9326;49.468;11.008;2023-01-28T16:08:38;5.97;;;3.70;;
18399;SDS011;9326;49.468;11.008;2023-01-28T16:11:06;5.10;;;3.60;;
18399;SDS011;9326;49.468;11.008;2023-01-28T16:13:34;4.57;;;3.63;;
18399;SDS011;9326;49.468;11.008;2023-01-28T16:16:02;5.73;;;3.97;;
18399;SDS011;9326;49.468;11.008;2023-01-28T16:18:36;4.67;;;3.63;;
18399;SDS011;9326;49.468;11.008;2023-01-28T16:21:04;6.70;;;4.20;;
18399;SDS011;9326;49.468;11.008;2023-01-28T16:23:34;5.20;;;3.63;;
18399;SDS011;9326;49.468;11.008;2023-01-28T16:26:03;5.07;;;3.70;;
18399;SDS011;9326;49.468;11.008;2023-01-28T16:28:31;4.23;;;3.10;;
18399;SDS011;9326;49.468;11.008;2023-01-28T16:30:58;3.80;;;3.40;;
18399;SDS011;9326;49.468;11.008;2023-01-28T16:33:25;4.63;;;3.77;;
18399;SDS011;9326;49.468;11.008;2023-01-28T16:35:53;5.20;;;4.03;;
18399;SDS011;9326;49.468;11.008;2023-01-28T16:38:20;5.80;;;4.10;;
18399;SDS011;9326;49.468;11.008;2023-01-28T16:40:49;5.07;;;3.37;;
18399;SDS011;9326;49.468;11.008;2023-01-28T16:43:17;4.90;;;3.40;;
18399;SDS011;9326;49.468;11.008;2023-01-28T16:45:44;3.40;;;3.07;;
18399;SDS011;9326;49.468;11.008;2023-01-28T16:48:11;5.47;;;4.20;;
18399;SDS011;9326;49.468;11.008;2023-01-28T16:50:38;4.33;;;3.70;;
18399;SDS011;9326;49.468;11.008;2023-01-28T16:53:10;5.63;;;3.60;;
18399;SDS011;9326;49.468;11.008;2023-01-28T16:55:41;5.03;;;4.30;;
18399;SDS011;9326;49.468;11.008;2023-01-28T16:58:09;5.03;;;3.63;;
18399;SDS011;9326;49.468;11.008;2023-01-28T17:00:36;7.30;;;4.40;;
18399;SDS011;9326;49.468;11.008;2023-01-28T17:03:05;6.03;;;3.93;;
18399;SDS011;9326;49.468;11.008;2023-01-28T17:05:33;5.40;;;4.20;;
18399;SDS011;9326;49.468;11.008;2023-01-28T17:08:00;4.13;;;3.73;;
18399;SDS011;9326;49.468;11.008;2023-01-28T17:10:28;4.13;;;3.73;;
18399;SDS011;9326;49.468;11.008;2023-01-28T17:12:55;6.53;;;4.30;;
18399;SDS011;9326;49.468;11.008;2023-01-28T17:15:24;5.10;;;4.27;;
18399;SDS011;9326;49.468;11.008;2023-01-28T17:17:51;5.07;;;4.03;;
18399;SDS011;9326;49.468;11.008;2023-01-28T17:20:19;5.67;;;4.10;;
18399;SDS011;9326;49.468;11.008;2023-01-28T17:22:46;5.20;;;3.77;;
18399;SDS011;9326;49.468;11.008;2023-01-28T17:25:13;2.83;;;2.63;;
18399;SDS011;9326;49.468;11.008;2023-01-28T17:27:40;4.67;;;2.80;;
18399;SDS011;9326;49.468;11.008;2023-01-28T17:30:08;3.53;;;3.00;;
18399;SDS011;9326;49.468;11.008;2023-01-28T17:32:36;3.57;;;3.27;;
18399;SDS011;9326;49.468;11.008;2023-01-28T17:35:03;3.80;;;3.40;;
18399;SDS011;9326;49.468;11.008;2023-01-28T17:37:31;5.10;;;3.67;;
18399;SDS011;9326;49.468;11.008;2023-01-28T17:40:02;4.60;;;3.90;;
18399;SDS011;9326;49.468;11.008;2023-01-28T17:42:29;5.50;;;3.87;;
18399;SDS011;9326;49.468;11.008;2023-01-28T17:44:56;6.20;;;4.50;;
18399;SDS011;9326;49.468;11.008;2023-01-28T17:47:27;5.23;;;4.33;;
18399;SDS011;9326;49.468;11.008;2023-01-28T17:49:55;6.57;;;4.27;;
18399;SDS011;9326;49.468;11.008;2023-01-28T17:52:22;7.97;;;4.20;;
18399;SDS011;9326;49.468;11.008;2023-01-28T17:54:50;5.87;;;4.60;;
18399;SDS011;9326;49.468;11.008;2023-01-28T17:57:17;5.00;;;4.43;;
18399;SDS011;9326;49.468;11.008;2023-01-28T17:59:48;6.23;;;4.10;;
18399;SDS011;9326;49.468;11.008;2023-01-28T18:02:15;8.77;;;4.27;;
18399;SDS011;9326;49.468;11.008;2023-01-28T18:04:43;5.53;;;4.67;;
18399;SDS011;9326;49.468;11.008;2023-01-28T18:07:12;5.67;;;4.47;;
18399;SDS011;9326;49.468;11.008;2023-01-28T18:09:42;7.37;;;4.90;;
18399;SDS011;9326;49.468;11.008;2023-01-28T18:12:10;7.40;;;5.00;;
18399;SDS011;9326;49.468;11.008;2023-01-28T18:14:38;5.63;;;4.50;;
18399;SDS011;9326;49.468;11.008;2023-01-28T18:17:06;4.93;;;4.47;;
18399;SDS011;9326;49.468;11.008;2023-01-28T18:19:36;4.30;;;3.90;;
18399;SDS011;9326;49.468;11.008;2023-01-28T18:22:03;5.40;;;4.43;;
18399;SDS011;9326;49.468;11.008;2023-01-28T18:24:31;6.10;;;4.07;;
18399;SDS011;9326;49.468;11.008;2023-01-28T18:26:58;4.60;;;4.07;;
18399;SDS011;9326;49.468;11.008;2023-01-28T18:29:27;5.47;;;4.43;;
18399;SDS011;9326;49.468;11.008;2023-01-28T18:31:55;4.60;;;4.10;;
18399;SDS011;9326;49.468;11.008;2023-01-28T18:34:24;5.97;;;4.47;;
18399;SDS011;9326;49.468;11.008;2023-01-28T18:36:51;6.90;;;4.07;;
18399;SDS011;9326;49.468;11.008;2023-01-28T18:39:19;4.20;;;3.80;;
18399;SDS011;9326;49.468;11.008;2023-01-28T18:41:50;5.07;;;3.93;;
18399;SDS011;9326;49.468;11.008;2023-01-28T18:44:19;6.83;;;4.50;;
18399;SDS011;9326;49.468;11.008;2023-01-28T18:46:47;4.30;;;3.90;;
18399;SDS011;9326;49.468;11.008;2023-01-28T18:49:14;5.60;;;4.03;;
18399;SDS011;9326;49.468;11.008;2023-01-28T18:51:41;5.77;;;3.97;;
18399;SDS011;9326;49.468;11.008;2023-01-28T18:54:10;6.60;;;4.73;;
18399;SDS011;9326;49.468;11.008;2023-01-28T18:56:37;4.23;;;3.63;;
18399;SDS011;9326;49.468;11.008;2023-01-28T18:59:11;5.13;;;3.17;;
18399;SDS011;9326;49.468;11.008;2023-01-28T19:01:40;5.00;;;3.57;;
18399;SDS011;9326;49.468;11.008;2023-01-28T19:04:08;5.97;;;4.60;;
18399;SDS011;9326;49.468;11.008;2023-01-28T19:06:35;4.97;;;3.27;;
18399;SDS011;9326;49.468;11.008;2023-01-28T19:09:03;4.27;;;2.63;;
18399;SDS011;9326;49.468;11.008;2023-01-28T19:11:33;5.33;;;3.17;;
18399;SDS011;9326;49.468;11.008;2023-01-28T19:14:02;6.70;;;3.87;;
18399;SDS011;9326;49.468;11.008;2023-01-28T19:16:31;5.40;;;3.70;;
18399;SDS011;9326;49.468;11.008;2023-01-28T19:19:01;6.20;;;4.37;;
18399;SDS011;9326;49.468;11.008;2023-01-28T19:21:30;4.93;;;4.43;;
18399;SDS011;9326;49.468;11.008;2023-01-28T19:23:58;7.60;;;4.30;;
18399;SDS011;9326;49.468;11.008;2023-01-28T19:26:26;5.03;;;4.53;;
18399;SDS011;9326;49.468;11.008;2023-01-28T19:28:53;5.37;;;4.60;;
18399;SDS011;9326;49.468;11.008;2023-01-28T19:31:21;5.30;;;4.80;;
18399;SDS011;9326;49.468;11.008;2023-01-28T19:33:51;11.80;;;9.03;;
18399;SDS011;9326;49.468;11.008;2023-01-28T19:36:19;16.63;;;14.53;;
18399;SDS011;9326;49.468;11.008;2023-01-28T19:38:46;4.17;;;3.30;;
18399;SDS011;9326;49.468;11.008;2023-01-28T19:41:13;23.70;;;21.33;;
18399;SDS011;9326;49.468;11.008;2023-01-28T19:43:42;8.00;;;7.20;;
18399;SDS011;9326;49.468;11.008;2023-01-28T19:46:12;5.40;;;3.73;;
18399;SDS011;9326;49.468;11.008;2023-01-28T19:48:41;6.70;;;5.50;;
18399;SDS011;9326;49.468;11.008;2023-01-28T19:51:09;6.20;;;5.57;;
18399;SDS011;9326;49.468;11.008;2023-01-28T19:53:38;4.30;;;3.90;;
18399;SDS011;9326;49.468;11.008;2023-01-28T19:56:07;6.37;;;4.97;;
18399;SDS011;9326;49.468;11.008;2023-01-28T19:58:35;4.50;;;3.60;;